Time;durP1;ratioP1;P1;durP2;ratioP2;P2;SDS_P1;SDS_P2;PMS_P1;PMS_P2;Temp;Humidity;BMP_temperature;BMP_pressure;BME280_temperature;BME280_humidity;BME280_pressure;Samples;Min_cycle;Max_cycle;Signal;HPM_P1;HPM_P2
2021/09/20 00:00:37;;;;;;;0.40;0.40;;;18.70;88.90;;;;;;5043871;28;20479;-72
2021/09/20 00:03:04;;;;;;;0.90;0.90;;;18.70;88.80;;;;;;5041365;28;20703;-72
2021/09/20 00:05:32;;;;;;;1.97;0.33;;;18.70;88.80;;;;;;5044232;28;20210;-72
2021/09/20 00:07:59;;;;;;;0.27;0.27;;;18.70;88.80;;;;;;5043584;28;20230;-72
2021/09/20 00:10:26;;;;;;;1.33;0.97;;;18.70;88.70;;;;;;5024862;28;20211;-72
2021/09/20 00:12:53;;;;;;;2.43;1.40;;;18.70;88.70;;;;;;5043317;28;20211;-72
2021/09/20 00:15:20;;;;;;;0.70;0.70;;;18.60;88.70;;;;;;5041004;28;20304;-72
2021/09/20 00:17:47;;;;;;;5.63;1.33;;;18.60;88.70;;;;;;5043222;28;20237;-72
2021/09/20 00:20:15;;;;;;;1.00;0.93;;;18.60;88.80;;;;;;5030249;28;20215;-72
2021/09/20 00:22:42;;;;;;;1.03;1.03;;;18.60;88.80;;;;;;5031621;28;20211;-72
2021/09/20 00:25:10;;;;;;;0.30;0.30;;;18.60;88.90;;;;;;5030967;28;20210;-72
2021/09/20 00:27:38;;;;;;;1.40;0.93;;;18.50;88.90;;;;;;5032969;28;20215;-72
2021/09/20 00:30:07;;;;;;;1.03;0.87;;;18.50;88.90;;;;;;5042546;28;20241;-72
2021/09/20 00:32:34;;;;;;;4.83;1.10;;;18.50;89.10;;;;;;5044337;28;20236;-72
2021/09/20 00:35:01;;;;;;;1.67;1.57;;;18.50;89.20;;;;;;5041175;28;20210;-72
2021/09/20 00:37:28;;;;;;;1.37;1.33;;;18.50;89.20;;;;;;5043209;28;20299;-72
2021/09/20 00:39:55;;;;;;;1.17;1.17;;;18.50;89.30;;;;;;5041870;28;20210;-72
2021/09/20 00:42:22;;;;;;;0.83;0.83;;;18.40;89.30;;;;;;5031718;28;20245;-72
2021/09/20 00:44:49;;;;;;;1.40;1.30;;;18.40;89.30;;;;;;5045050;28;20289;-72
2021/09/20 00:47:16;;;;;;;0.60;0.60;;;18.40;89.30;;;;;;5031440;28;20751;-72
2021/09/20 00:49:43;;;;;;;1.80;1.70;;;18.40;89.40;;;;;;5040147;28;20272;-72
2021/09/20 00:52:10;;;;;;;0.47;0.47;;;18.40;89.40;;;;;;5042622;28;20219;-72
2021/09/20 00:54:37;;;;;;;1.00;1.00;;;18.40;89.40;;;;;;5041296;28;20219;-72
2021/09/20 00:57:05;;;;;;;0.37;0.37;;;18.40;89.40;;;;;;5025891;28;20611;-72
2021/09/20 00:59:32;;;;;;;2.53;1.23;;;18.40;89.50;;;;;;5040739;28;20215;-72
2021/09/20 01:01:58;;;;;;;0.73;0.73;;;18.30;89.40;;;;;;5044875;28;20229;-72
2021/09/20 01:04:26;;;;;;;2.00;0.67;;;18.30;90.00;;;;;;5040444;28;20292;-72
2021/09/20 01:06:53;;;;;;;0.60;0.60;;;18.30;89.40;;;;;;5037030;28;20242;-72
2021/09/20 01:09:20;;;;;;;0.60;0.43;;;18.30;89.30;;;;;;5030883;28;20221;-72
2021/09/20 01:11:47;;;;;;;0.73;0.73;;;18.30;89.30;;;;;;5051057;28;20683;-72
2021/09/20 01:14:14;;;;;;;0.40;0.30;;;18.30;89.40;;;;;;5049996;28;20207;-71
2021/09/20 01:16:41;;;;;;;1.03;1.03;;;18.20;89.30;;;;;;5033156;28;20207;-71
2021/09/20 01:19:09;;;;;;;1.33;0.90;;;18.20;89.30;;;;;;5035845;28;20241;-72
2021/09/20 01:21:36;;;;;;;0.70;0.70;;;18.20;89.30;;;;;;5034475;28;20213;-72
2021/09/20 01:24:04;;;;;;;0.80;0.73;;;18.20;89.20;;;;;;5032248;28;20211;-72
2021/09/20 01:26:31;;;;;;;4.23;1.17;;;18.20;89.20;;;;;;5057248;28;20210;-72
2021/09/20 01:28:58;;;;;;;1.30;1.17;;;18.20;89.10;;;;;;5048597;28;20221;-72
2021/09/20 01:31:25;;;;;;;1.27;1.27;;;18.20;89.10;;;;;;5052032;28;20214;-72
2021/09/20 01:33:52;;;;;;;1.00;1.00;;;18.20;89.00;;;;;;5050891;28;20218;-72
2021/09/20 01:36:19;;;;;;;0.80;0.80;;;18.20;88.70;;;;;;5050567;28;20218;-72
2021/09/20 01:38:46;;;;;;;0.77;0.77;;;18.20;88.50;;;;;;5052520;28;20611;-72
2021/09/20 01:41:13;;;;;;;1.57;1.47;;;18.20;88.40;;;;;;5049291;28;20241;-72
2021/09/20 01:43:41;;;;;;;0.50;0.50;;;18.30;88.20;;;;;;5036315;28;20376;-72
2021/09/20 01:46:07;;;;;;;1.50;1.40;;;18.30;87.80;;;;;;5031130;28;20237;-72
2021/09/20 01:48:35;;;;;;;0.47;0.47;;;18.30;87.50;;;;;;5048517;28;20215;-72
2021/09/20 01:51:02;;;;;;;0.93;0.93;;;18.40;87.20;;;;;;5044733;28;20222;-72
2021/09/20 01:53:29;;;;;;;1.70;1.17;;;18.40;86.90;;;;;;5049783;28;20241;-72
2021/09/20 01:55:56;;;;;;;0.30;0.30;;;18.40;86.60;;;;;;5045570;28;20226;-72
2021/09/20 01:58:23;;;;;;;0.37;0.37;;;18.40;86.40;;;;;;5039201;28;20235;-72
2021/09/20 02:00:50;;;;;;;0.60;0.60;;;18.40;86.10;;;;;;5047006;28;20226;-72
2021/09/20 02:03:17;;;;;;;0.33;0.33;;;18.40;85.90;;;;;;5049586;28;20246;-72
2021/09/20 02:05:44;;;;;;;0.30;0.30;;;18.40;85.70;;;;;;5037974;28;20249;-72
2021/09/20 02:08:11;;;;;;;0.63;0.63;;;18.40;85.60;;;;;;5048676;28;20218;-72
2021/09/20 02:10:39;;;;;;;0.50;0.50;;;18.40;85.40;;;;;;5045555;28;20222;-72
2021/09/20 02:13:05;;;;;;;0.47;0.47;;;18.30;85.20;;;;;;5051031;28;20211;-72
2021/09/20 02:15:33;;;;;;;0.47;0.47;;;18.30;85.30;;;;;;5045152;28;20224;-72
2021/09/20 02:18:00;;;;;;;0.30;0.30;;;18.30;85.30;;;;;;5047327;28;20552;-72
2021/09/20 02:20:27;;;;;;;0.60;0.60;;;18.20;85.20;;;;;;5033385;28;20230;-72
2021/09/20 02:22:54;;;;;;;0.30;0.30;;;18.20;85.10;;;;;;5036676;28;20214;-72
2021/09/20 02:25:23;;;;;;;0.63;0.63;;;18.10;84.90;;;;;;5040330;28;20273;-73
2021/09/20 02:27:50;;;;;;;0.73;0.73;;;18.10;84.90;;;;;;5031360;28;20606;-72
2021/09/20 02:30:17;;;;;;;0.27;0.27;;;18.00;84.80;;;;;;5035624;28;20222;-72
2021/09/20 02:32:44;;;;;;;0.47;0.47;;;18.00;84.90;;;;;;5044029;28;20214;-72
2021/09/20 02:35:12;;;;;;;0.50;0.50;;;17.90;84.80;;;;;;5046028;28;20222;-72
2021/09/20 02:37:40;;;;;;;0.83;0.83;;;17.80;84.90;;;;;;5024990;28;20308;-72
2021/09/20 02:40:08;;;;;;;1.13;1.07;;;17.80;84.90;;;;;;5045289;28;20217;-72
2021/09/20 02:42:36;;;;;;;1.20;1.10;;;17.70;84.80;;;;;;5027200;28;20210;-72
2021/09/20 02:45:06;;;;;;;0.90;0.83;;;17.60;84.50;;;;;;5025975;28;20273;-72
2021/09/20 02:47:34;;;;;;;0.37;0.37;;;17.50;84.10;;;;;;5042972;28;20226;-72
2021/09/20 02:50:03;;;;;;;0.60;0.60;;;17.50;83.70;;;;;;5043234;28;20604;-72
2021/09/20 02:52:30;;;;;;;2.00;0.87;;;17.40;83.40;;;;;;5045124;28;20603;-72
2021/09/20 02:54:57;;;;;;;0.10;0.10;;;17.30;83.50;;;;;;5024862;28;20280;-72
2021/09/20 02:57:24;;;;;;;0.63;0.63;;;17.30;83.90;;;;;;5041139;28;20219;-72
2021/09/20 02:59:51;;;;;;;0.40;0.40;;;17.20;84.10;;;;;;5042617;28;20215;-72
2021/09/20 03:02:18;;;;;;;0.53;0.53;;;17.20;84.40;;;;;;5042587;28;20254;-72
2021/09/20 03:04:46;;;;;;;0.30;0.30;;;17.20;84.50;;;;;;5025438;28;20243;-72
2021/09/20 03:07:13;;;;;;;0.80;0.80;;;17.10;84.60;;;;;;5042647;28;20597;-72
2021/09/20 03:09:40;;;;;;;0.10;0.10;;;17.10;84.70;;;;;;5027563;28;20280;-72
2021/09/20 03:12:07;;;;;;;0.93;0.93;;;17.10;84.80;;;;;;5043266;28;20223;-72
2021/09/20 03:14:34;;;;;;;0.67;0.67;;;17.00;84.80;;;;;;5032953;28;20214;-72
2021/09/20 03:17:01;;;;;;;5.63;1.40;;;17.00;84.90;;;;;;5045436;28;20245;-72
2021/09/20 03:19:29;;;;;;;1.70;1.10;;;17.00;85.00;;;;;;5027782;28;20239;-72
2021/09/20 03:21:56;;;;;;;1.00;1.00;;;16.90;85.10;;;;;;5034118;28;20206;-72
2021/09/20 03:24:23;;;;;;;0.27;0.27;;;16.90;85.20;;;;;;5029118;28;20219;-72
2021/09/20 03:26:50;;;;;;;1.33;1.23;;;16.80;85.20;;;;;;5044256;28;20210;-72
2021/09/20 03:29:18;;;;;;;0.80;0.80;;;16.80;85.30;;;;;;5045109;28;20619;-72
2021/09/20 03:31:45;;;;;;;0.93;0.87;;;16.80;85.40;;;;;;5045043;28;20202;-71
2021/09/20 03:34:12;;;;;;;1.23;1.07;;;16.80;85.40;;;;;;5043264;28;20210;-71
2021/09/20 03:36:40;;;;;;;0.70;0.60;;;16.80;85.40;;;;;;5035199;28;20223;-71
2021/09/20 03:39:07;;;;;;;1.03;0.30;;;16.70;85.40;;;;;;5041370;28;20691;-71
2021/09/20 03:41:34;;;;;;;0.00;0.00;;;16.70;85.40;;;;;;5034458;28;20608;-71
2021/09/20 03:44:01;;;;;;;0.43;0.43;;;16.70;85.40;;;;;;5042871;28;20215;-71
2021/09/20 03:46:28;;;;;;;0.90;0.87;;;16.60;85.40;;;;;;5045162;28;20242;-71
2021/09/20 03:48:56;;;;;;;2.23;2.03;;;16.60;85.40;;;;;;5041998;28;20546;-71
2021/09/20 03:51:23;;;;;;;1.13;0.43;;;16.60;85.50;;;;;;5041173;28;20562;-71
2021/09/20 03:53:50;;;;;;;0.83;0.83;;;16.60;85.40;;;;;;5044437;28;20221;-71
2021/09/20 03:56:17;;;;;;;0.80;0.80;;;16.60;85.40;;;;;;5040154;28;20225;-71
2021/09/20 03:58:44;;;;;;;1.83;0.90;;;16.50;85.40;;;;;;5031535;28;20234;-71
2021/09/20 04:01:11;;;;;;;0.93;0.93;;;16.50;85.40;;;;;;5034935;28;20268;-71
2021/09/20 04:03:38;;;;;;;0.93;0.93;;;16.50;85.50;;;;;;5041177;28;20211;-71
2021/09/20 04:06:05;;;;;;;1.10;1.00;;;16.50;85.50;;;;;;5044287;28;20206;-71
2021/09/20 04:08:32;;;;;;;0.93;0.93;;;16.50;85.50;;;;;;5042363;28;20222;-71
2021/09/20 04:10:59;;;;;;;0.40;0.40;;;16.50;85.50;;;;;;5043360;28;20561;-71
2021/09/20 04:13:26;;;;;;;0.60;0.60;;;16.50;85.50;;;;;;5029722;28;20215;-71
2021/09/20 04:15:54;;;;;;;1.37;1.33;;;16.50;85.30;;;;;;5043362;28;20279;-71
2021/09/20 04:18:22;;;;;;;1.23;1.17;;;16.50;85.30;;;;;;5033746;28;20253;-71
2021/09/20 04:20:51;;;;;;;0.70;0.53;;;16.50;85.30;;;;;;5039456;28;20265;-71
2021/09/20 04:23:19;;;;;;;1.27;1.17;;;16.50;85.30;;;;;;5044306;28;20268;-71
2021/09/20 04:25:48;;;;;;;0.83;0.83;;;16.50;85.30;;;;;;5030311;28;20218;-71
2021/09/20 04:28:15;;;;;;;2.80;1.23;;;16.50;85.30;;;;;;5034729;28;20222;-71
2021/09/20 04:30:44;;;;;;;0.10;0.10;;;16.50;85.30;;;;;;5044706;28;20443;-71
2021/09/20 04:33:15;;;;;;;1.10;1.10;;;16.50;85.30;;;;;;5040695;28;20570;-71
2021/09/20 04:35:43;;;;;;;0.30;0.30;;;16.50;85.90;;;;;;5028985;28;20215;-71
2021/09/20 04:38:11;;;;;;;3.60;1.27;;;16.40;85.10;;;;;;5024816;28;20239;-71
2021/09/20 04:40:40;;;;;;;1.40;0.97;;;16.40;85.00;;;;;;5042620;28;20385;-71
2021/09/20 04:43:09;;;;;;;0.97;0.97;;;16.40;85.10;;;;;;5021027;28;20210;-71
2021/09/20 04:45:37;;;;;;;3.10;1.17;;;16.40;85.10;;;;;;5026779;28;20250;-72
2021/09/20 04:48:07;;;;;;;2.97;1.50;;;16.40;85.10;;;;;;5041824;28;20225;-72
2021/09/20 04:50:34;;;;;;;1.80;1.37;;;16.40;85.00;;;;;;5026982;28;20264;-71
2021/09/20 04:53:01;;;;;;;1.13;0.73;;;16.30;85.00;;;;;;5042138;28;20207;-71
2021/09/20 04:55:28;;;;;;;1.10;1.10;;;16.30;84.90;;;;;;5042138;28;20210;-71
2021/09/20 04:57:55;;;;;;;3.40;0.87;;;16.30;84.90;;;;;;5042685;28;20585;-71
2021/09/20 05:00:22;;;;;;;1.23;1.20;;;16.30;84.80;;;;;;5038250;28;20637;-71
2021/09/20 05:02:49;;;;;;;2.10;1.90;;;16.30;84.80;;;;;;5032239;28;20234;-71
2021/09/20 05:05:17;;;;;;;3.10;1.33;;;16.20;84.80;;;;;;5013761;28;20223;-71
2021/09/20 05:07:44;;;;;;;0.57;0.57;;;16.20;84.80;;;;;;5041202;28;20210;-71
2021/09/20 05:10:11;;;;;;;1.90;1.80;;;16.20;84.80;;;;;;5043034;28;20692;-72
2021/09/20 05:12:38;;;;;;;1.13;1.03;;;16.10;84.60;;;;;;5031218;28;20207;-71
2021/09/20 05:15:05;;;;;;;0.70;0.70;;;16.10;84.50;;;;;;5033074;28;20642;-71
2021/09/20 05:17:32;;;;;;;1.17;1.17;;;16.10;84.50;;;;;;5033162;28;20219;-71
2021/09/20 05:20:00;;;;;;;0.30;0.30;;;16.10;84.40;;;;;;5043954;28;20226;-71
2021/09/20 05:22:27;;;;;;;0.83;0.73;;;16.10;84.40;;;;;;5023672;28;20229;-71
2021/09/20 05:24:54;;;;;;;1.80;1.23;;;16.20;84.50;;;;;;5042856;28;20257;-71
2021/09/20 05:27:21;;;;;;;2.03;1.30;;;16.20;84.40;;;;;;5041725;28;20558;-71
2021/09/20 05:29:48;;;;;;;1.03;0.93;;;16.30;84.40;;;;;;5040893;28;20613;-72
2021/09/20 05:32:16;;;;;;;0.50;0.50;;;16.30;84.30;;;;;;5040249;28;20269;-71
2021/09/20 05:34:43;;;;;;;0.50;0.50;;;16.30;84.30;;;;;;5041933;28;20231;-71
2021/09/20 05:37:10;;;;;;;1.97;1.60;;;16.40;84.30;;;;;;5039733;28;20249;-71
2021/09/20 05:39:37;;;;;;;1.10;1.07;;;16.40;84.20;;;;;;5041834;28;20300;-71
2021/09/20 05:42:04;;;;;;;1.47;1.37;;;16.50;84.00;;;;;;5033383;28;20260;-71
2021/09/20 05:44:31;;;;;;;0.33;0.33;;;16.60;84.10;;;;;;5026129;28;20219;-71
2021/09/20 05:46:58;;;;;;;0.40;0.40;;;16.70;84.20;;;;;;5032040;28;20247;-71
2021/09/20 05:49:25;;;;;;;1.43;1.13;;;16.80;84.20;;;;;;5045200;28;20589;-71
2021/09/20 05:51:52;;;;;;;0.40;0.40;;;17.00;84.00;;;;;;5036533;28;20230;-71
2021/09/20 05:54:19;;;;;;;2.00;1.27;;;17.20;83.80;;;;;;5034731;28;20214;-71
2021/09/20 05:56:46;;;;;;;0.47;0.47;;;17.30;83.40;;;;;;5046203;28;20212;-71
2021/09/20 05:59:13;;;;;;;0.73;0.73;;;17.50;82.30;;;;;;5035229;28;20234;-71
2021/09/20 06:01:40;;;;;;;0.83;0.83;;;17.60;80.90;;;;;;5045020;28;20279;-71
2021/09/20 06:04:07;;;;;;;2.83;1.43;;;17.80;80.50;;;;;;5046547;28;20573;-71
2021/09/20 06:06:34;;;;;;;9.60;3.20;;;17.90;80.20;;;;;;5029111;28;20215;-71
2021/09/20 06:09:01;;;;;;;0.30;0.30;;;18.10;78.90;;;;;;5035250;28;20280;-71
2021/09/20 06:11:28;;;;;;;0.70;0.70;;;18.10;77.60;;;;;;5034611;28;20277;-71
2021/09/20 06:13:57;;;;;;;0.73;0.73;;;18.20;77.40;;;;;;5035376;28;20273;-71
2021/09/20 06:16:24;;;;;;;0.43;0.43;;;18.30;77.80;;;;;;5027025;28;20219;-71
2021/09/20 06:18:51;;;;;;;0.40;0.40;;;18.40;77.10;;;;;;5024876;28;20230;-71
2021/09/20 06:21:19;;;;;;;0.57;0.57;;;18.50;76.00;;;;;;5025553;28;20601;-71
2021/09/20 06:23:46;;;;;;;0.20;0.20;;;18.50;75.10;;;;;;5044599;28;20218;-71
2021/09/20 06:26:13;;;;;;;1.80;1.70;;;18.60;75.10;;;;;;5045229;28;20377;-71
2021/09/20 06:28:40;;;;;;;0.43;0.43;;;18.60;74.30;;;;;;5033917;28;20280;-71
2021/09/20 06:31:07;;;;;;;2.37;0.97;;;18.70;73.90;;;;;;5035956;28;20214;-71
2021/09/20 06:33:35;;;;;;;1.03;0.70;;;18.80;74.20;;;;;;5045973;28;20214;-72
2021/09/20 06:36:03;;;;;;;0.17;0.17;;;18.80;74.20;;;;;;5042399;28;20215;-72
2021/09/20 06:38:30;;;;;;;0.13;0.13;;;18.90;74.00;;;;;;5041180;28;20242;-72
2021/09/20 06:40:57;;;;;;;0.20;0.20;;;19.00;74.00;;;;;;5034451;28;20207;-71
2021/09/20 06:43:24;;;;;;;1.10;1.10;;;19.10;74.10;;;;;;5045231;28;20218;-71
2021/09/20 06:45:51;;;;;;;0.77;0.70;;;19.10;74.10;;;;;;5043834;28;20270;-71
2021/09/20 06:48:18;;;;;;;0.10;0.10;;;19.20;74.10;;;;;;5043516;28;20261;-72
2021/09/20 06:50:46;;;;;;;0.47;0.47;;;19.30;74.00;;;;;;5045497;28;20210;-72
2021/09/20 06:53:12;;;;;;;0.53;0.53;;;19.40;73.80;;;;;;5041076;28;20654;-71
2021/09/20 06:55:39;;;;;;;0.40;0.40;;;19.40;73.60;;;;;;5043768;28;20579;-71
2021/09/20 06:58:06;;;;;;;0.20;0.20;;;19.50;73.60;;;;;;5044524;28;20280;-71
2021/09/20 07:00:33;;;;;;;2.33;0.93;;;19.60;73.50;;;;;;5044312;28;20632;-71
2021/09/20 07:03:00;;;;;;;1.20;1.10;;;19.60;73.40;;;;;;5038156;28;20931;-71
2021/09/20 07:05:28;;;;;;;0.30;0.30;;;19.70;73.30;;;;;;5043194;28;20253;-71
2021/09/20 07:07:55;;;;;;;3.90;1.23;;;19.80;73.20;;;;;;5038069;28;20215;-71
2021/09/20 07:10:22;;;;;;;1.00;1.00;;;19.80;72.90;;;;;;5033139;28;20273;-71
2021/09/20 07:12:49;;;;;;;0.17;0.17;;;19.90;72.80;;;;;;5041451;28;20219;-71
2021/09/20 07:15:16;;;;;;;0.80;0.80;;;19.90;72.60;;;;;;5041861;28;20215;-71
2021/09/20 07:17:43;;;;;;;0.17;0.17;;;20.00;71.90;;;;;;5044410;28;20608;-72
2021/09/20 07:20:12;;;;;;;0.10;0.10;;;20.00;70.70;;;;;;5045083;28;20230;-71
2021/09/20 07:22:39;;;;;;;0.87;0.40;;;20.10;70.50;;;;;;5041003;28;20215;-71
2021/09/20 07:25:07;;;;;;;0.17;0.17;;;20.20;70.30;;;;;;5045141;28;20238;-71
2021/09/20 07:27:34;;;;;;;0.10;0.10;;;20.30;70.70;;;;;;5042469;28;20216;-71
2021/09/20 07:30:02;;;;;;;0.53;0.53;;;20.50;70.60;;;;;;5032266;28;20600;-71
2021/09/20 07:32:29;;;;;;;0.37;0.37;;;20.70;70.40;;;;;;5040750;28;20589;-71
2021/09/20 07:34:56;;;;;;;0.10;0.10;;;20.90;70.10;;;;;;5041559;28;20226;-71
2021/09/20 07:37:23;;;;;;;0.30;0.30;;;21.00;68.10;;;;;;5028118;28;20223;-71
2021/09/20 07:39:51;;;;;;;0.10;0.10;;;21.20;68.40;;;;;;5043075;28;20227;-72
2021/09/20 07:42:18;;;;;;;0.97;0.40;;;21.30;67.10;;;;;;5042124;28;20223;-71
2021/09/20 07:44:45;;;;;;;0.53;0.53;;;21.40;67.20;;;;;;5035665;28;20214;-71
2021/09/20 07:47:12;;;;;;;0.10;0.10;;;21.60;66.50;;;;;;5032432;28;20242;-71
2021/09/20 07:49:39;;;;;;;0.00;0.00;;;21.70;66.10;;;;;;5033138;28;20284;-71
2021/09/20 07:52:06;;;;;;;0.10;0.10;;;21.90;65.30;;;;;;5034846;28;20616;-71
2021/09/20 07:54:33;;;;;;;0.20;0.20;;;21.90;64.50;;;;;;5039547;28;20285;-71
2021/09/20 07:57:00;;;;;;;0.10;0.10;;;22.00;64.30;;;;;;5027541;28;20294;-71
2021/09/20 07:59:27;;;;;;;0.20;0.20;;;22.20;63.30;;;;;;5028289;28;20545;-72
2021/09/20 08:01:54;;;;;;;0.30;0.30;;;22.20;61.90;;;;;;5040194;28;20207;-70
2021/09/20 08:04:21;;;;;;;0.30;0.30;;;22.30;62.20;;;;;;5027845;28;20300;-71
2021/09/20 08:06:48;;;;;;;0.77;0.77;;;22.40;62.40;;;;;;5047421;28;20202;-71
2021/09/20 08:09:15;;;;;;;0.10;0.10;;;22.50;62.20;;;;;;5041224;28;20215;-71
2021/09/20 08:11:42;;;;;;;0.40;0.40;;;22.70;62.50;;;;;;5032702;28;20377;-71
2021/09/20 08:14:09;;;;;;;2.20;0.80;;;23.00;62.40;;;;;;5042542;28;20219;-71
2021/09/20 08:16:36;;;;;;;3.70;0.50;;;23.20;62.00;;;;;;5041302;28;20223;-71
2021/09/20 08:19:03;;;;;;;1.40;1.37;;;23.30;59.50;;;;;;5043910;28;20238;-71
2021/09/20 08:21:30;;;;;;;0.33;0.33;;;23.30;60.10;;;;;;5030914;28;20285;-71
2021/09/20 08:23:57;;;;;;;0.00;0.00;;;23.50;60.20;;;;;;5043155;28;20276;-71
2021/09/20 08:26:24;;;;;;;0.10;0.10;;;23.70;59.50;;;;;;5042359;28;20238;-71
2021/09/20 08:28:51;;;;;;;0.20;0.20;;;23.80;59.40;;;;;;5040640;28;20237;-71
2021/09/20 08:31:17;;;;;;;0.13;0.13;;;24.00;59.30;;;;;;5042160;28;20423;-72
2021/09/20 08:33:44;;;;;;;0.10;0.10;;;24.20;59.00;;;;;;5040225;28;20263;-72
2021/09/20 08:36:12;;;;;;;0.00;0.00;;;24.50;58.20;;;;;;5042413;28;20273;-72
2021/09/20 08:38:39;;;;;;;0.00;0.00;;;24.70;58.00;;;;;;5041695;28;20210;-71
2021/09/20 08:41:06;;;;;;;0.30;0.30;;;24.80;57.60;;;;;;5034412;28;20264;-71
2021/09/20 08:43:33;;;;;;;0.00;0.00;;;24.90;56.60;;;;;;5032149;28;20219;-72
2021/09/20 08:46:03;;;;;;;0.50;0.43;;;25.00;55.80;;;;;;5042586;28;20250;-71
2021/09/20 08:48:36;;;;;;;0.30;0.30;;;25.10;55.60;;;;;;5042791;28;20211;-72
2021/09/20 08:51:03;;;;;;;0.57;0.50;;;25.20;55.90;;;;;;5022694;28;20281;-72
2021/09/20 08:53:30;;;;;;;0.30;0.30;;;25.30;54.30;;;;;;5043144;28;20214;-72
2021/09/20 08:55:58;;;;;;;0.10;0.10;;;25.30;54.80;;;;;;5032888;28;20682;-71
2021/09/20 08:58:26;;;;;;;0.10;0.10;;;25.50;54.90;;;;;;5044616;28;20214;-72
2021/09/20 09:00:54;;;;;;;0.13;0.13;;;25.60;54.60;;;;;;5043969;28;20624;-72
2021/09/20 09:03:22;;;;;;;0.13;0.13;;;25.70;54.10;;;;;;5039141;28;20651;-71
2021/09/20 09:05:50;;;;;;;0.10;0.10;;;25.70;52.40;;;;;;5043395;28;20243;-72
2021/09/20 09:08:18;;;;;;;0.77;0.70;;;25.70;52.80;;;;;;5039234;28;20600;-71
2021/09/20 09:11:04;;;;;;;0.13;0.13;;;25.70;52.20;;;;;;5040060;28;20281;-72
2021/09/20 09:13:46;;;;;;;0.50;0.30;;;25.80;52.40;;;;;;5040570;28;20219;-71
2021/09/20 09:16:16;;;;;;;0.00;0.00;;;25.90;52.40;;;;;;5042006;28;20214;-72
2021/09/20 09:19:09;;;;;;;0.80;0.50;;;26.00;52.40;;;;;;5030915;28;20604;-72
2021/09/20 09:21:39;;;;;;;1.27;0.20;;;26.20;52.10;;;;;;5043078;28;20227;-72
2021/09/20 09:24:17;;;;;;;0.30;0.30;;;26.30;52.00;;;;;;5045084;28;20218;-71
2021/09/20 09:26:59;;;;;;;0.40;0.40;;;26.50;52.00;;;;;;5045130;28;20585;-72
2021/09/20 09:29:29;;;;;;;0.30;0.30;;;26.60;50.80;;;;;;5043857;28;20516;-72
2021/09/20 09:32:00;;;;;;;0.70;0.40;;;26.60;50.90;;;;;;5038454;28;20211;-72
2021/09/20 09:34:32;;;;;;;0.13;0.13;;;26.70;50.60;;;;;;5030594;28;20246;-72
2021/09/20 09:37:13;;;;;;;0.50;0.50;;;26.70;49.30;;;;;;5043668;28;20238;-72
2021/09/20 09:39:40;;;;;;;0.10;0.10;;;26.70;50.00;;;;;;5028170;28;20242;-72
2021/09/20 09:42:28;;;;;;;0.30;0.30;;;26.80;49.90;;;;;;5034349;28;20306;-72
2021/09/20 09:44:57;;;;;;;0.20;0.20;;;27.00;50.10;;;;;;5046365;28;20210;-72
2021/09/20 09:47:29;;;;;;;0.60;0.60;;;27.10;49.90;;;;;;5023795;28;20230;-72
2021/09/20 09:50:38;;;;;;;1.07;0.97;;;27.20;49.90;;;;;;5026079;28;20219;-72
2021/09/20 09:53:05;;;;;;;0.63;0.63;;;27.30;49.40;;;;;;4985008;28;20219;-72
2021/09/20 09:55:32;;;;;;;0.30;0.30;;;27.40;49.50;;;;;;4969685;28;20209;-72
2021/09/20 09:58:10;;;;;;;0.73;0.73;;;27.40;49.10;;;;;;5011261;28;20285;-72
2021/09/20 10:00:38;;;;;;;0.20;0.20;;;27.50;48.50;;;;;;5026104;28;20235;-73
2021/09/20 10:03:05;;;;;;;0.30;0.30;;;27.50;48.90;;;;;;5023002;28;20211;-72
2021/09/20 10:05:33;;;;;;;0.83;0.30;;;27.60;48.90;;;;;;5022480;28;20363;-72
2021/09/20 10:08:08;;;;;;;0.20;0.20;;;27.70;48.70;;;;;;5027025;28;20211;-72
2021/09/20 10:10:35;;;;;;;1.07;1.07;;;27.80;48.20;;;;;;5024320;28;20230;-72
2021/09/20 10:13:08;;;;;;;0.40;0.40;;;27.90;47.90;;;;;;5015075;28;20215;-72
2021/09/20 10:15:36;;;;;;;0.20;0.20;;;27.90;47.70;;;;;;5026481;28;20258;-72
2021/09/20 10:18:04;;;;;;;0.20;0.20;;;28.00;47.80;;;;;;5024859;28;20237;-72
2021/09/20 10:20:32;;;;;;;2.93;0.13;;;28.10;47.50;;;;;;5007956;28;20232;-72
2021/09/20 10:22:59;;;;;;;0.20;0.20;;;28.10;46.50;;;;;;5023868;28;20270;-72
2021/09/20 10:25:30;;;;;;;0.00;0.00;;;27.90;43.70;;;;;;5026294;28;20222;-72
2021/09/20 10:27:58;;;;;;;1.70;1.10;;;27.60;45.00;;;;;;5024173;28;20567;-72
2021/09/20 10:30:34;;;;;;;0.00;0.00;;;27.40;44.30;;;;;;5024087;28;20226;-72
2021/09/20 10:33:07;;;;;;;0.43;0.30;;;27.20;44.10;;;;;;5005356;28;20215;-72
2021/09/20 10:35:36;;;;;;;0.47;0.47;;;27.00;45.20;;;;;;5007648;28;20225;-72
2021/09/20 10:38:21;;;;;;;0.00;0.00;;;27.10;45.70;;;;;;5008523;28;20222;-72
2021/09/20 10:41:07;;;;;;;0.50;0.50;;;27.30;45.60;;;;;;5024870;28;20238;-72
2021/09/20 10:43:36;;;;;;;0.57;0.40;;;27.50;45.30;;;;;;5023654;28;20235;-72
2021/09/20 10:46:07;;;;;;;0.10;0.10;;;27.70;45.20;;;;;;5022440;28;20650;-72
2021/09/20 10:48:59;;;;;;;0.40;0.20;;;27.90;44.70;;;;;;5019681;28;20215;-72
2021/09/20 10:51:39;;;;;;;0.07;0.07;;;28.00;44.20;;;;;;4999209;28;20215;-72
2021/09/20 10:54:15;;;;;;;0.10;0.10;;;28.00;42.80;;;;;;5020610;28;20216;-72
2021/09/20 10:56:43;;;;;;;0.00;0.00;;;27.90;42.80;;;;;;5023683;28;20288;-72
2021/09/20 10:59:10;;;;;;;0.00;0.00;;;27.90;43.50;;;;;;5025378;28;20617;-72
2021/09/20 11:01:39;;;;;;;0.10;0.10;;;28.10;43.90;;;;;;5021405;28;20691;-72
2021/09/20 11:04:14;;;;;;;0.10;0.10;;;28.20;43.90;;;;;;5024426;28;20214;-72
2021/09/20 11:06:43;;;;;;;0.50;0.50;;;28.40;43.80;;;;;;5022957;28;20576;-73
2021/09/20 11:09:10;;;;;;;0.20;0.20;;;28.50;43.40;;;;;;5025516;28;20709;-73
2021/09/20 11:11:36;;;;;;;0.10;0.10;;;28.60;43.50;;;;;;5017339;28;20211;-72
2021/09/20 11:14:09;;;;;;;0.00;0.00;;;28.70;43.30;;;;;;5024193;28;20459;-72
2021/09/20 11:16:55;;;;;;;0.50;0.50;;;28.80;42.40;;;;;;5028499;28;20230;-73
2021/09/20 11:19:31;;;;;;;0.73;0.47;;;28.70;41.90;;;;;;5024920;28;20803;-73
2021/09/20 11:24:40;;;;;;;0.00;0.00;;;28.70;41.70;;;;;;5023159;28;20221;-72
2021/09/20 11:27:15;;;;;;;0.20;0.20;;;28.60;41.60;;;;;;5022645;28;20212;-73
2021/09/20 11:29:48;;;;;;;0.10;0.10;;;28.60;41.00;;;;;;5022518;28;20215;-73
2021/09/20 11:32:16;;;;;;;0.20;0.20;;;28.50;40.60;;;;;;5022151;28;20310;-73
2021/09/20 11:34:48;;;;;;;0.10;0.10;;;28.40;39.70;;;;;;5023256;28;20254;-73
2021/09/20 11:37:23;;;;;;;0.10;0.10;;;28.30;40.10;;;;;;5007298;28;20215;-73
2021/09/20 11:40:03;;;;;;;0.53;0.53;;;28.20;39.30;;;;;;5023041;28;20243;-72
2021/09/20 11:42:36;;;;;;;0.00;0.00;;;28.20;39.70;;;;;;5021548;28;20208;-73
2021/09/20 11:45:19;;;;;;;0.20;0.20;;;28.20;39.70;;;;;;5023532;28;20214;-73
2021/09/20 11:47:54;;;;;;;0.57;0.57;;;28.20;40.30;;;;;;5022350;28;20277;-72
2021/09/20 11:50:25;;;;;;;0.10;0.10;;;28.40;40.70;;;;;;5022286;28;20635;-72
2021/09/20 11:52:58;;;;;;;0.10;0.10;;;28.50;40.40;;;;;;5021767;28;20216;-73
2021/09/20 11:55:30;;;;;;;0.27;0.27;;;28.60;40.70;;;;;;5021520;28;20219;-72
2021/09/20 11:58:05;;;;;;;0.50;0.50;;;28.70;40.70;;;;;;5008208;28;20215;-73
2021/09/20 12:00:35;;;;;;;0.10;0.10;;;28.70;40.10;;;;;;5022584;28;20312;-73
2021/09/20 12:03:09;;;;;;;0.00;0.00;;;28.70;38.60;;;;;;5004521;28;20212;-74
2021/09/20 12:05:42;;;;;;;0.43;0.43;;;28.50;39.30;;;;;;5004071;28;20212;-73
2021/09/20 12:08:21;;;;;;;0.40;0.40;;;28.50;39.40;;;;;;5025277;28;20226;-72
2021/09/20 12:10:52;;;;;;;0.00;0.00;;;28.50;39.10;;;;;;5021995;28;20230;-73
2021/09/20 12:13:27;;;;;;;0.20;0.20;;;28.50;38.90;;;;;;5022525;28;20576;-73
2021/09/20 12:15:57;;;;;;;0.30;0.30;;;28.50;39.40;;;;;;5021256;28;20215;-72
2021/09/20 12:18:28;;;;;;;0.10;0.10;;;28.60;39.60;;;;;;5023004;28;20566;-72
2021/09/20 12:20:58;;;;;;;0.30;0.30;;;28.70;39.50;;;;;;5026250;28;20254;-73
2021/09/20 12:23:37;;;;;;;0.10;0.10;;;28.70;38.60;;;;;;5020595;28;20215;-73
2021/09/20 12:26:05;;;;;;;0.10;0.10;;;28.60;38.30;;;;;;5021966;28;20215;-73
2021/09/20 12:28:38;;;;;;;0.57;0.57;;;28.40;39.10;;;;;;5021641;28;20222;-73
2021/09/20 12:31:20;;;;;;;0.00;0.00;;;28.30;39.70;;;;;;5022209;28;20593;-73
2021/09/20 12:33:59;;;;;;;0.10;0.10;;;28.30;39.00;;;;;;5021001;28;20675;-73
2021/09/20 12:36:37;;;;;;;0.30;0.30;;;28.30;39.90;;;;;;5020908;28;20618;-73
2021/09/20 12:39:25;;;;;;;0.10;0.10;;;28.30;39.60;;;;;;5022207;28;20223;-73
2021/09/20 12:42:07;;;;;;;0.10;0.10;;;28.40;39.10;;;;;;5006343;28;20231;-73
2021/09/20 12:44:35;;;;;;;0.30;0.30;;;28.30;38.20;;;;;;5019077;28;20289;-73
2021/09/20 12:47:08;;;;;;;0.37;0.20;;;28.20;37.90;;;;;;5022027;28;20637;-73
2021/09/20 12:49:36;;;;;;;0.27;0.27;;;28.10;38.40;;;;;;5023537;28;20642;-73
2021/09/20 12:52:04;;;;;;;0.10;0.10;;;28.10;39.70;;;;;;5002709;28;20218;-73
2021/09/20 12:54:32;;;;;;;0.10;0.10;;;28.00;40.00;;;;;;5005678;28;20639;-73
2021/09/20 12:57:18;;;;;;;0.20;0.20;;;27.90;40.00;;;;;;5022013;28;20215;-73
2021/09/20 12:59:46;;;;;;;0.00;0.00;;;27.80;39.90;;;;;;5022031;28;20207;-73